createdAt,value
2022-12-31T00:00:21.085Z,99461.56
2022-12-31T00:02:48.015Z,99458.72
2022-12-31T00:05:15.100Z,99459.63
2022-12-31T00:10:08.186Z,99460.69
2022-12-31T00:12:35.313Z,99463.19
2022-12-31T00:15:03.530Z,99465.75
2022-12-31T00:17:30.551Z,99479.91
2022-12-31T00:19:57.503Z,99475.41
2022-12-31T00:22:24.367Z,99485.88
2022-12-31T00:24:51.295Z,99476.72
2022-12-31T00:27:18.109Z,99480.06
2022-12-31T00:29:45.000Z,99472.84
2022-12-31T00:32:11.819Z,99482.53
2022-12-31T00:34:38.793Z,99479.81
2022-12-31T00:37:05.660Z,99481.66
2022-12-31T00:39:32.667Z,99488.75
2022-12-31T00:41:59.503Z,99497.00
2022-12-31T00:44:26.403Z,99490.53
2022-12-31T00:46:53.255Z,99509.81
2022-12-31T00:49:20.135Z,99512.09
2022-12-31T00:51:47.443Z,99502.00
2022-12-31T00:54:14.673Z,99505.38
2022-12-31T00:56:41.668Z,99507.13
2022-12-31T00:59:08.528Z,99513.34
2022-12-31T01:01:38.421Z,99517.13
2022-12-31T01:04:11.696Z,99517.38
2022-12-31T01:06:39.607Z,99528.81
2022-12-31T01:09:07.519Z,99524.31
2022-12-31T01:11:34.430Z,99522.66
2022-12-31T01:14:04.398Z,99531.41
2022-12-31T01:16:32.665Z,99530.28
2022-12-31T01:19:01.850Z,99529.44
2022-12-31T01:21:30.694Z,99513.50
2022-12-31T01:23:58.789Z,99510.16
2022-12-31T01:26:26.644Z,99518.75
2022-12-31T01:28:53.663Z,99515.31
2022-12-31T01:31:22.387Z,99530.56
2022-12-31T01:33:50.513Z,99532.34
2022-12-31T01:36:26.624Z,99519.72
2022-12-31T01:38:59.117Z,99505.53
2022-12-31T01:41:30.090Z,99522.94
2022-12-31T01:43:58.797Z,99527.69
2022-12-31T01:46:39.695Z,99520.03
2022-12-31T01:49:11.091Z,99521.66
2022-12-31T01:51:40.104Z,99526.00
2022-12-31T01:54:09.567Z,99524.81
2022-12-31T01:56:39.001Z,99516.91
2022-12-31T01:59:08.894Z,99515.78
2022-12-31T02:01:37.973Z,99512.78
2022-12-31T02:04:13.653Z,99510.91
2022-12-31T02:07:03.532Z,99512.56
2022-12-31T02:09:32.655Z,99521.66
2022-12-31T02:11:59.929Z,99509.47
2022-12-31T02:14:31.113Z,99516.63
2022-12-31T02:17:10.867Z,99521.09
2022-12-31T02:20:09.347Z,99521.78
2022-12-31T02:22:59.673Z,99523.34
2022-12-31T02:25:48.509Z,99519.66
2022-12-31T02:28:49.187Z,99515.97
2022-12-31T02:31:23.025Z,99513.50
2022-12-31T02:34:01.141Z,99513.47
2022-12-31T02:36:36.828Z,99513.59
2022-12-31T02:39:06.333Z,99505.09
2022-12-31T02:41:51.350Z,99504.38
2022-12-31T02:44:22.424Z,99525.53
2022-12-31T02:46:55.418Z,99523.72
2022-12-31T02:49:35.535Z,99540.16
2022-12-31T02:52:24.328Z,99544.50
2022-12-31T02:55:03.818Z,99543.59
2022-12-31T02:57:46.482Z,99542.59
2022-12-31T03:00:35.170Z,99544.72
2022-12-31T03:03:04.005Z,99550.00
2022-12-31T03:05:34.463Z,99544.66
2022-12-31T03:08:01.319Z,99549.94
2022-12-31T03:10:28.292Z,99558.63
2022-12-31T03:12:55.192Z,99550.53
2022-12-31T03:15:28.638Z,99552.44
2022-12-31T03:17:58.317Z,99547.88
2022-12-31T03:20:47.521Z,99543.13
2022-12-31T03:23:17.518Z,99536.78
2022-12-31T03:25:44.701Z,99531.53
2022-12-31T03:28:15.228Z,99539.91
2022-12-31T03:30:44.669Z,99541.63
2022-12-31T03:33:11.857Z,99522.84
2022-12-31T03:35:40.531Z,99529.75
2022-12-31T03:38:08.177Z,99535.97
2022-12-31T03:40:39.782Z,99531.97
2022-12-31T03:43:06.763Z,99536.81
2022-12-31T03:45:35.832Z,99539.53
2022-12-31T03:48:04.707Z,99518.34
2022-12-31T03:50:32.051Z,99529.03
2022-12-31T03:52:59.190Z,99529.16
2022-12-31T03:55:26.125Z,99535.19
2022-12-31T03:57:53.008Z,99537.63
2022-12-31T04:00:21.284Z,99526.97
2022-12-31T04:02:49.316Z,99545.19
2022-12-31T04:05:17.690Z,99553.03
2022-12-31T04:07:44.548Z,99542.47
2022-12-31T04:10:13.621Z,99550.47
2022-12-31T04:12:40.873Z,99541.69
2022-12-31T04:15:09.713Z,99564.63
2022-12-31T04:17:37.835Z,99554.88
2022-12-31T04:20:05.293Z,99551.16
2022-12-31T04:22:32.349Z,99552.91
2022-12-31T04:24:59.232Z,99564.31
2022-12-31T04:27:26.171Z,99559.09
2022-12-31T04:29:53.052Z,99553.88
2022-12-31T04:32:19.991Z,99564.50
2022-12-31T04:34:46.890Z,99566.13
2022-12-31T04:37:13.824Z,99569.91
2022-12-31T04:39:40.702Z,99571.00
2022-12-31T04:42:07.611Z,99574.63
2022-12-31T04:44:35.232Z,99581.72
2022-12-31T04:47:02.259Z,99581.63
2022-12-31T04:49:29.202Z,99587.72
2022-12-31T04:51:56.088Z,99582.25
2022-12-31T04:54:23.038Z,99594.31
2022-12-31T04:56:49.932Z,99589.13
2022-12-31T04:59:16.758Z,99590.88
2022-12-31T05:01:43.738Z,99591.78
2022-12-31T05:04:10.648Z,99594.38
2022-12-31T05:06:37.545Z,99598.69
2022-12-31T05:09:04.492Z,99596.94
2022-12-31T05:11:31.508Z,99595.22
2022-12-31T05:13:58.421Z,99602.03
2022-12-31T05:16:25.358Z,99599.47
2022-12-31T05:18:52.225Z,99593.47
2022-12-31T05:21:21.321Z,99599.31
2022-12-31T05:23:49.048Z,99606.34
2022-12-31T05:26:16.498Z,99596.84
2022-12-31T05:28:43.375Z,99609.09
2022-12-31T05:31:10.701Z,99610.88
2022-12-31T05:33:37.641Z,99613.94
2022-12-31T05:36:04.917Z,99606.13
2022-12-31T05:38:31.772Z,99609.63
2022-12-31T05:41:00.295Z,99607.22
2022-12-31T05:43:27.162Z,99617.69
2022-12-31T05:45:54.156Z,99622.19
2022-12-31T05:48:21.393Z,99621.81
2022-12-31T05:50:49.557Z,99629.72
2022-12-31T05:53:16.419Z,99629.78
2022-12-31T05:55:44.818Z,99627.88
2022-12-31T05:58:11.704Z,99623.34
2022-12-31T06:00:38.566Z,99649.09
2022-12-31T06:03:05.479Z,99652.59
2022-12-31T06:05:32.413Z,99656.03
2022-12-31T06:07:59.356Z,99650.34
2022-12-31T06:10:26.212Z,99652.91
2022-12-31T06:12:53.065Z,99661.63
2022-12-31T06:15:20.014Z,99658.94
2022-12-31T06:17:46.856Z,99660.88
2022-12-31T06:20:13.669Z,99664.19
2022-12-31T06:22:40.537Z,99662.47
2022-12-31T06:25:07.719Z,99667.88
2022-12-31T06:27:34.608Z,99659.22
2022-12-31T06:30:01.474Z,99668.16
2022-12-31T06:32:28.372Z,99667.19
2022-12-31T06:34:55.255Z,99670.16
2022-12-31T06:37:22.001Z,99672.28
2022-12-31T06:39:49.154Z,99678.75
2022-12-31T06:42:16.004Z,99670.91
2022-12-31T06:44:42.716Z,99681.63
2022-12-31T06:47:09.529Z,99676.50
2022-12-31T06:49:36.379Z,99687.78
2022-12-31T06:52:03.384Z,99690.53
2022-12-31T06:54:30.287Z,99697.44
2022-12-31T06:56:57.434Z,99700.72
2022-12-31T06:59:29.754Z,99712.91
2022-12-31T07:02:17.526Z,99714.47
2022-12-31T07:05:08.164Z,99719.59
2022-12-31T07:07:44.548Z,99707.13
2022-12-31T07:10:28.973Z,99708.97
2022-12-31T07:13:35.549Z,99717.94
2022-12-31T07:16:20.397Z,99720.47
2022-12-31T07:19:16.601Z,99726.53
2022-12-31T07:21:44.801Z,99713.19
2022-12-31T07:24:12.557Z,99717.50
2022-12-31T07:26:57.452Z,99729.63
2022-12-31T07:29:35.129Z,99732.69
2022-12-31T07:32:43.576Z,99722.72
2022-12-31T07:35:34.518Z,99720.00
2022-12-31T07:38:39.857Z,99734.13
2022-12-31T07:41:20.032Z,99731.50
2022-12-31T07:43:59.219Z,99743.03
2022-12-31T07:46:33.581Z,99737.31
2022-12-31T07:49:00.827Z,99732.81
2022-12-31T07:51:28.200Z,99738.84
2022-12-31T07:53:55.068Z,99737.91
2022-12-31T07:56:21.960Z,99740.59
2022-12-31T07:59:00.907Z,99732.47
2022-12-31T08:01:42.751Z,99733.19
2022-12-31T08:04:28.076Z,99737.75
2022-12-31T08:07:04.042Z,99741.88
2022-12-31T08:09:45.110Z,99742.75
2022-12-31T08:12:12.208Z,99733.06
2022-12-31T08:14:48.767Z,99736.59
2022-12-31T08:17:18.176Z,99732.66
2022-12-31T08:19:48.207Z,99737.69
2022-12-31T08:22:37.357Z,99740.09
2022-12-31T08:25:17.686Z,99741.59
2022-12-31T08:28:20.309Z,99744.91
2022-12-31T08:31:14.844Z,99751.91
2022-12-31T08:34:06.134Z,99744.78
2022-12-31T08:36:47.915Z,99760.16
2022-12-31T08:39:27.767Z,99768.97
2022-12-31T08:41:58.401Z,99753.03
2022-12-31T08:44:37.912Z,99754.88
2022-12-31T08:47:35.503Z,99749.34
2022-12-31T08:50:07.191Z,99735.28
2022-12-31T08:52:34.295Z,99742.34
2022-12-31T08:55:02.881Z,99741.97
2022-12-31T08:57:43.006Z,99725.41
2022-12-31T09:00:10.387Z,99727.38
2022-12-31T09:02:49.338Z,99733.53
2022-12-31T09:05:20.050Z,99719.63
2022-12-31T09:08:20.128Z,99717.91
2022-12-31T09:11:05.659Z,99722.31
2022-12-31T09:13:52.847Z,99710.81
2022-12-31T09:16:42.951Z,99717.34
2022-12-31T09:19:10.780Z,99709.19
2022-12-31T09:21:38.722Z,99693.13
2022-12-31T09:24:09.548Z,99702.31
2022-12-31T09:27:16.049Z,99705.56
2022-12-31T09:30:06.185Z,99692.56
2022-12-31T09:32:43.266Z,99695.84
2022-12-31T09:35:29.136Z,99696.56
2022-12-31T09:38:11.816Z,99701.22
2022-12-31T09:40:47.938Z,99700.91
2022-12-31T09:44:01.253Z,99695.53
2022-12-31T09:46:47.325Z,99698.97
2022-12-31T09:49:42.192Z,99688.75
2022-12-31T09:52:40.677Z,99696.16
2022-12-31T09:55:08.005Z,99696.25
2022-12-31T09:57:51.451Z,99680.91
2022-12-31T10:01:11.867Z,99681.56
2022-12-31T10:04:03.983Z,99673.38
2022-12-31T10:06:53.021Z,99674.19
2022-12-31T10:09:27.766Z,99673.50
2022-12-31T10:12:18.564Z,99670.09
2022-12-31T10:14:55.660Z,99682.06
2022-12-31T10:17:59.085Z,99676.94
2022-12-31T10:20:51.925Z,99675.03
2022-12-31T10:23:37.043Z,99670.91
2022-12-31T10:26:23.283Z,99671.84
2022-12-31T10:29:09.970Z,99667.38
2022-12-31T10:32:05.480Z,99662.91
2022-12-31T10:35:05.472Z,99666.28
2022-12-31T10:37:43.594Z,99656.91
2022-12-31T10:40:24.926Z,99649.09
2022-12-31T10:43:09.739Z,99653.91
2022-12-31T10:46:15.040Z,99649.81
2022-12-31T10:48:50.214Z,99647.88
2022-12-31T10:51:48.069Z,99638.66
2022-12-31T10:54:42.248Z,99644.41
2022-12-31T10:57:31.936Z,99640.28
2022-12-31T11:00:10.495Z,99628.59
2022-12-31T11:02:40.858Z,99636.44
2022-12-31T11:05:43.275Z,99620.06
2022-12-31T11:08:34.988Z,99624.41
2022-12-31T11:11:40.747Z,99627.34
2022-12-31T11:14:30.861Z,99615.09
2022-12-31T11:17:06.569Z,99606.56
2022-12-31T11:19:49.154Z,99614.22
2022-12-31T11:22:24.254Z,99624.16
2022-12-31T11:24:51.956Z,99611.59
2022-12-31T11:27:46.086Z,99609.84
2022-12-31T11:30:22.276Z,99603.38
2022-12-31T11:33:10.757Z,99602.03
2022-12-31T11:35:52.922Z,99598.63
2022-12-31T11:38:33.328Z,99592.38
2022-12-31T11:41:11.371Z,99600.44
2022-12-31T11:43:51.408Z,99602.78
2022-12-31T11:46:41.520Z,99597.72
2022-12-31T11:49:20.305Z,99591.06
2022-12-31T11:51:57.869Z,99589.63
2022-12-31T11:54:25.243Z,99594.06
2022-12-31T11:57:05.232Z,99580.22
2022-12-31T11:59:32.966Z,99589.97
2022-12-31T12:02:25.384Z,99590.19
2022-12-31T12:04:55.618Z,99589.25
2022-12-31T12:07:24.190Z,99591.00
2022-12-31T12:09:54.691Z,99595.72
2022-12-31T12:12:22.945Z,99595.13
2022-12-31T12:14:53.874Z,99597.66
2022-12-31T12:17:33.168Z,99584.81
2022-12-31T12:20:03.732Z,99593.94
2022-12-31T12:22:31.489Z,99598.28
2022-12-31T12:25:17.634Z,99604.19
2022-12-31T12:27:44.852Z,99601.38
2022-12-31T12:30:24.902Z,99599.50
2022-12-31T12:32:54.464Z,99596.34
2022-12-31T12:35:29.988Z,99593.81
2022-12-31T12:38:21.406Z,99600.53
2022-12-31T12:41:01.114Z,99594.59
2022-12-31T12:43:36.255Z,99583.19
2022-12-31T12:46:18.800Z,99591.59
2022-12-31T12:48:49.520Z,99588.69
2022-12-31T12:51:30.750Z,99600.22
2022-12-31T12:54:00.416Z,99601.75
2022-12-31T12:56:49.430Z,99601.34
2022-12-31T12:59:19.541Z,99599.81
2022-12-31T13:02:16.533Z,99592.34
2022-12-31T13:05:20.543Z,99600.66
2022-12-31T13:08:14.542Z,99595.31
2022-12-31T13:10:47.435Z,99600.00
2022-12-31T13:13:30.548Z,99590.28
2022-12-31T13:16:00.102Z,99581.03
2022-12-31T13:18:36.019Z,99588.78
2022-12-31T13:21:21.381Z,99589.84
2022-12-31T13:23:53.315Z,99585.53
2022-12-31T13:26:20.137Z,99590.22
2022-12-31T13:28:49.220Z,99593.78
2022-12-31T13:31:21.867Z,99587.28
2022-12-31T13:33:59.328Z,99582.50
2022-12-31T13:36:28.660Z,99600.19
2022-12-31T13:38:59.520Z,99592.09
2022-12-31T13:41:32.304Z,99589.94
2022-12-31T13:44:06.554Z,99582.84
2022-12-31T13:46:36.347Z,99576.75
2022-12-31T13:49:13.351Z,99584.47
2022-12-31T13:51:45.366Z,99579.91
2022-12-31T13:54:33.279Z,99580.41
2022-12-31T13:57:02.661Z,99586.41
2022-12-31T13:59:35.467Z,99572.91
2022-12-31T14:02:20.204Z,99584.94
2022-12-31T14:04:53.157Z,99582.03
2022-12-31T14:07:26.698Z,99582.78
2022-12-31T14:09:58.514Z,99579.75
2022-12-31T14:12:56.029Z,99597.50
2022-12-31T14:15:31.142Z,99592.97
2022-12-31T14:18:14.118Z,99598.88
2022-12-31T14:20:49.303Z,99593.91
2022-12-31T14:23:28.276Z,99596.59
2022-12-31T14:26:07.679Z,99589.81
2022-12-31T14:28:47.729Z,99596.19
2022-12-31T14:31:27.851Z,99600.13
2022-12-31T14:34:37.660Z,99598.06
2022-12-31T14:37:13.327Z,99609.78
2022-12-31T14:40:16.927Z,99613.13
2022-12-31T14:43:13.085Z,99611.38
2022-12-31T14:45:56.557Z,99598.28
2022-12-31T14:48:53.819Z,99603.03
2022-12-31T14:51:21.035Z,99609.53
2022-12-31T14:53:54.953Z,99621.22
2022-12-31T14:56:42.918Z,99622.22
2022-12-31T14:59:33.342Z,99611.31
2022-12-31T15:02:04.425Z,99616.13
2022-12-31T15:04:49.609Z,99617.84
2022-12-31T15:07:33.773Z,99628.00
2022-12-31T15:10:26.963Z,99629.06
2022-12-31T15:12:59.719Z,99625.72
2022-12-31T15:15:40.655Z,99631.50
2022-12-31T15:18:10.643Z,99629.47
2022-12-31T15:20:40.163Z,99629.06
2022-12-31T15:23:24.798Z,99637.38
2022-12-31T15:25:59.330Z,99634.66
2022-12-31T15:28:34.971Z,99642.38
2022-12-31T15:31:17.512Z,99641.97
2022-12-31T15:33:59.150Z,99648.19
2022-12-31T15:36:29.810Z,99659.44
2022-12-31T15:39:19.033Z,99666.56
2022-12-31T15:42:35.473Z,99670.75
2022-12-31T15:44:50.133Z,99654.53
2022-12-31T15:47:44.328Z,99664.53
2022-12-31T15:50:21.430Z,99658.25
2022-12-31T15:53:04.480Z,99663.91
2022-12-31T15:55:44.409Z,99674.66
2022-12-31T15:58:23.906Z,99675.41
2022-12-31T16:01:14.827Z,99678.06
2022-12-31T16:04:01.897Z,99673.47
2022-12-31T16:06:31.534Z,99679.56
2022-12-31T16:08:58.806Z,99690.06
2022-12-31T16:11:30.376Z,99686.88
2022-12-31T16:13:58.725Z,99692.56
2022-12-31T16:16:29.850Z,99698.72
2022-12-31T16:18:59.081Z,99703.44
2022-12-31T16:21:38.296Z,99692.66
2022-12-31T16:24:32.765Z,99700.31
2022-12-31T16:27:08.621Z,99704.81
2022-12-31T16:29:38.351Z,99704.81
2022-12-31T16:32:11.923Z,99707.06
2022-12-31T16:34:39.641Z,99725.22
2022-12-31T16:37:19.762Z,99717.50
2022-12-31T16:39:58.508Z,99726.44
2022-12-31T16:42:29.390Z,99731.06
2022-12-31T16:44:57.517Z,99736.19
2022-12-31T16:47:34.169Z,99744.19
2022-12-31T16:50:11.507Z,99740.88
2022-12-31T16:52:44.798Z,99732.09
2022-12-31T16:55:27.203Z,99727.59
2022-12-31T16:58:01.042Z,99734.50
2022-12-31T17:00:28.353Z,99738.53
2022-12-31T17:03:16.843Z,99734.63
2022-12-31T17:05:56.035Z,99730.91
2022-12-31T17:08:28.834Z,99735.97
2022-12-31T17:10:56.615Z,99739.31
2022-12-31T17:13:35.079Z,99752.44
2022-12-31T17:16:02.609Z,99749.53
2022-12-31T17:18:37.264Z,99750.13
2022-12-31T17:21:10.353Z,99758.25
2022-12-31T17:23:39.935Z,99758.75
2022-12-31T17:26:11.628Z,99759.94
2022-12-31T17:28:50.035Z,99770.78
2022-12-31T17:31:38.221Z,99766.44
2022-12-31T17:34:12.610Z,99770.09
2022-12-31T17:36:57.283Z,99764.94
2022-12-31T17:39:25.401Z,99762.19
2022-12-31T17:41:58.276Z,99768.44
2022-12-31T17:44:29.240Z,99761.28
2022-12-31T17:46:56.356Z,99761.28
2022-12-31T17:49:30.124Z,99771.78
2022-12-31T17:51:57.285Z,99774.22
2022-12-31T17:54:24.148Z,99773.09
2022-12-31T17:56:52.873Z,99772.88
2022-12-31T17:59:23.370Z,99788.91
2022-12-31T18:01:50.783Z,99784.03
2022-12-31T18:04:19.235Z,99779.44
2022-12-31T18:06:46.249Z,99769.41
2022-12-31T18:09:13.191Z,99781.38
2022-12-31T18:11:41.051Z,99787.56
2022-12-31T18:14:08.325Z,99783.88
2022-12-31T18:16:35.361Z,99789.13
2022-12-31T18:19:02.407Z,99789.84
2022-12-31T18:21:34.934Z,99793.31
2022-12-31T18:26:30.202Z,99783.16
2022-12-31T18:29:00.375Z,99784.97
2022-12-31T18:31:30.204Z,99786.69
2022-12-31T18:33:59.109Z,99787.16
2022-12-31T18:36:27.780Z,99786.69
2022-12-31T18:38:54.777Z,99780.75
2022-12-31T18:41:24.739Z,99783.59
2022-12-31T18:43:51.674Z,99786.25
2022-12-31T18:46:21.562Z,99790.97
2022-12-31T18:48:48.972Z,99784.69
2022-12-31T18:51:31.484Z,99800.50
2022-12-31T18:54:00.613Z,99790.03
2022-12-31T18:56:27.958Z,99803.34
2022-12-31T18:58:55.502Z,99799.91
2022-12-31T19:01:34.274Z,99808.66
2022-12-31T19:04:10.292Z,99794.72
2022-12-31T19:06:37.459Z,99790.88
2022-12-31T19:09:13.260Z,99803.13
2022-12-31T19:11:51.960Z,99808.94
2022-12-31T19:14:21.872Z,99817.03
2022-12-31T19:16:49.588Z,99809.03
2022-12-31T19:19:16.983Z,99798.16
2022-12-31T19:21:44.547Z,99802.16
2022-12-31T19:24:26.756Z,99815.22
2022-12-31T19:26:54.822Z,99815.44
2022-12-31T19:29:26.773Z,99824.44
2022-12-31T19:31:54.349Z,99820.88
2022-12-31T19:34:21.436Z,99804.84
2022-12-31T19:36:48.512Z,99816.94
2022-12-31T19:39:17.903Z,99814.78
2022-12-31T19:41:45.036Z,99827.06
2022-12-31T19:44:16.547Z,99815.34
2022-12-31T19:46:44.019Z,99815.81
2022-12-31T19:49:12.335Z,99832.59
2022-12-31T19:51:39.318Z,99823.47
2022-12-31T19:54:06.816Z,99826.84
2022-12-31T19:56:34.147Z,99812.50
2022-12-31T19:59:10.961Z,99815.78
2022-12-31T20:01:38.668Z,99824.69
2022-12-31T20:04:05.878Z,99815.81
2022-12-31T20:06:32.796Z,99824.09
2022-12-31T20:08:59.725Z,99817.81
2022-12-31T20:11:26.823Z,99814.78
2022-12-31T20:13:54.279Z,99803.31
2022-12-31T20:16:24.631Z,99810.97
2022-12-31T20:18:52.318Z,99816.16
2022-12-31T20:21:22.208Z,99812.78
2022-12-31T20:23:50.573Z,99820.84
2022-12-31T20:26:18.831Z,99825.28
2022-12-31T20:28:46.219Z,99834.19
2022-12-31T20:31:16.329Z,99833.25
2022-12-31T20:33:43.641Z,99828.75
2022-12-31T20:36:13.481Z,99826.97
2022-12-31T20:38:41.162Z,99829.50
2022-12-31T20:41:12.293Z,99829.88
2022-12-31T20:43:40.212Z,99827.06
2022-12-31T20:46:15.227Z,99823.63
2022-12-31T20:48:44.079Z,99832.50
2022-12-31T20:51:11.799Z,99834.34
2022-12-31T20:53:38.887Z,99830.72
2022-12-31T20:56:09.699Z,99823.47
2022-12-31T20:58:37.273Z,99821.44
2022-12-31T21:01:08.709Z,99826.84
2022-12-31T21:06:28.744Z,99822.72
2022-12-31T21:08:57.425Z,99830.72
2022-12-31T21:11:43.005Z,99826.38
2022-12-31T21:14:10.046Z,99829.66
2022-12-31T21:16:37.041Z,99834.06
2022-12-31T21:19:04.026Z,99835.88
2022-12-31T21:21:31.211Z,99817.41
2022-12-31T21:23:58.193Z,99832.28
2022-12-31T21:26:25.290Z,99822.50
2022-12-31T21:28:53.844Z,99835.59
2022-12-31T21:31:21.254Z,99829.81
2022-12-31T21:33:48.769Z,99837.81
2022-12-31T21:36:16.278Z,99836.03
2022-12-31T21:38:44.143Z,99828.88
2022-12-31T21:41:33.571Z,99826.94
2022-12-31T21:44:02.167Z,99823.09
2022-12-31T21:46:29.502Z,99826.66
2022-12-31T21:48:58.583Z,99822.13
2022-12-31T21:51:25.977Z,99829.28
2022-12-31T21:53:53.155Z,99825.66
2022-12-31T21:56:21.430Z,99831.69
2022-12-31T21:59:16.771Z,99836.94
2022-12-31T22:02:10.148Z,99836.88
2022-12-31T22:07:26.155Z,99839.94
2022-12-31T22:09:53.190Z,99831.19
2022-12-31T22:12:20.149Z,99843.41
2022-12-31T22:15:14.833Z,99835.19
2022-12-31T22:17:34.707Z,99834.94
2022-12-31T22:20:26.582Z,99827.59
2022-12-31T22:22:49.421Z,99824.94
2022-12-31T22:25:16.700Z,99833.06
2022-12-31T22:27:53.098Z,99834.28
2022-12-31T22:30:31.081Z,99838.16
2022-12-31T22:32:57.960Z,99842.09
2022-12-31T22:35:24.884Z,99838.78
2022-12-31T22:38:04.183Z,99838.88
2022-12-31T22:40:35.167Z,99847.56
2022-12-31T22:43:02.025Z,99854.41
2022-12-31T22:45:29.015Z,99840.22
2022-12-31T22:47:55.996Z,99840.31
2022-12-31T22:50:22.881Z,99833.97
2022-12-31T22:52:49.747Z,99833.28
2022-12-31T22:55:16.865Z,99834.97
2022-12-31T22:57:43.666Z,99829.50
2022-12-31T23:00:16.007Z,99830.19
2022-12-31T23:02:43.502Z,99831.34
2022-12-31T23:05:15.646Z,99828.97
2022-12-31T23:07:44.178Z,99833.75
2022-12-31T23:10:29.581Z,99830.31
2022-12-31T23:12:56.478Z,99836.28
2022-12-31T23:15:42.369Z,99834.38
2022-12-31T23:18:28.103Z,99841.38
2022-12-31T23:21:13.340Z,99842.28
2022-12-31T23:23:40.171Z,99835.38
2022-12-31T23:26:07.116Z,99832.53
2022-12-31T23:28:33.957Z,99831.72
2022-12-31T23:31:06.272Z,99837.78
2022-12-31T23:33:33.196Z,99838.72
2022-12-31T23:36:07.163Z,99840.16
2022-12-31T23:38:34.129Z,99839.56
2022-12-31T23:41:01.061Z,99829.47
2022-12-31T23:43:27.937Z,99834.09
2022-12-31T23:45:55.186Z,99828.72
2022-12-31T23:48:22.091Z,99835.91
2022-12-31T23:50:53.869Z,99836.84
2022-12-31T23:53:22.977Z,99841.66
2022-12-31T23:55:50.267Z,99833.97
2022-12-31T23:58:19.834Z,99835.13
